sensor_id;sensor_type;location;lat;lon;timestamp;pressure;altitude;pressure_sealevel;temperature
20867;BMP280;10593;48.398;10.698;2024-01-10T00:01:32;96887.66;;;1.31
20867;BMP280;10593;48.398;10.698;2024-01-10T00:03:58;96887.66;;;1.31
20867;BMP280;10593;48.398;10.698;2024-01-10T00:06:23;96887.63;;;1.29
20867;BMP280;10593;48.398;10.698;2024-01-10T00:08:50;96888.50;;;1.31
20867;BMP280;10593;48.398;10.698;2024-01-10T00:11:16;96887.66;;;1.31
20867;BMP280;10593;48.398;10.698;2024-01-10T00:13:41;96889.34;;;1.30
20867;BMP280;10593;48.398;10.698;2024-01-10T00:16:07;96882.59;;;1.31
20867;BMP280;10593;48.398;10.698;2024-01-10T00:18:34;96885.03;;;1.28
20867;BMP280;10593;48.398;10.698;2024-01-10T00:20:59;96892.69;;;1.31
20867;BMP280;10593;48.398;10.698;2024-01-10T00:23:25;96891.88;;;1.30
20867;BMP280;10593;48.398;10.698;2024-01-10T00:25:51;96886.81;;;1.32
20867;BMP280;10593;48.398;10.698;2024-01-10T00:28:17;96883.41;;;1.30
20867;BMP280;10593;48.398;10.698;2024-01-10T00:30:44;96886.81;;;1.30
20867;BMP280;10593;48.398;10.698;2024-01-10T00:33:10;96874.16;;;1.30
20867;BMP280;10593;48.398;10.698;2024-01-10T00:35:37;96882.59;;;1.31
20867;BMP280;10593;48.398;10.698;2024-01-10T00:38:03;96876.69;;;1.30
20867;BMP280;10593;48.398;10.698;2024-01-10T00:40:28;96880.88;;;1.30
20867;BMP280;10593;48.398;10.698;2024-01-10T00:42:54;96881.75;;;1.30
20867;BMP280;10593;48.398;10.698;2024-01-10T00:45:20;96883.38;;;1.28
20867;BMP280;10593;48.398;10.698;2024-01-10T00:47:50;96880.03;;;1.29
20867;BMP280;10593;48.398;10.698;2024-01-10T00:50:16;96881.69;;;1.29
20867;BMP280;10593;48.398;10.698;2024-01-10T00:52:44;96883.38;;;1.28
20867;BMP280;10593;48.398;10.698;2024-01-10T00:55:09;96889.28;;;1.29
20867;BMP280;10593;48.398;10.698;2024-01-10T00:57:35;96888.44;;;1.28
20867;BMP280;10593;48.398;10.698;2024-01-10T01:00:01;96885.91;;;1.28
20867;BMP280;10593;48.398;10.698;2024-01-10T01:02:27;96885.03;;;1.28
20867;BMP280;10593;48.398;10.698;2024-01-10T01:04:53;96882.50;;;1.28
20867;BMP280;10593;48.398;10.698;2024-01-10T01:07:18;96885.91;;;1.28
20867;BMP280;10593;48.398;10.698;2024-01-10T01:09:44;96886.75;;;1.29
20867;BMP280;10593;48.398;10.698;2024-01-10T01:12:10;96885.91;;;1.28
20867;BMP280;10593;48.398;10.698;2024-01-10T01:14:35;96882.50;;;1.28
20867;BMP280;10593;48.398;10.698;2024-01-10T01:17:01;96882.50;;;1.28
20867;BMP280;10593;48.398;10.698;2024-01-10T01:19:27;96887.56;;;1.28
20867;BMP280;10593;48.398;10.698;2024-01-10T01:21:52;96896.81;;;1.27
20867;BMP280;10593;48.398;10.698;2024-01-10T01:24:18;96895.16;;;1.28
20867;BMP280;10593;48.398;10.698;2024-01-10T01:26:43;96884.16;;;1.27
20867;BMP280;10593;48.398;10.698;2024-01-10T01:29:09;96891.75;;;1.27
20867;BMP280;10593;48.398;10.698;2024-01-10T01:31:35;96890.91;;;1.27
20867;BMP280;10593;48.398;10.698;2024-01-10T01:34:01;96896.81;;;1.27
20867;BMP280;10593;48.398;10.698;2024-01-10T01:36:26;96892.63;;;1.28
20867;BMP280;10593;48.398;10.698;2024-01-10T01:38:52;96889.22;;;1.27
20867;BMP280;10593;48.398;10.698;2024-01-10T01:41:17;96890.91;;;1.27
20867;BMP280;10593;48.398;10.698;2024-01-10T01:43:44;96890.91;;;1.27
20867;BMP280;10593;48.398;10.698;2024-01-10T01:46:10;96891.75;;;1.27
20867;BMP280;10593;48.398;10.698;2024-01-10T01:48:36;96890.03;;;1.26
20867;BMP280;10593;48.398;10.698;2024-01-10T01:51:06;96884.16;;;1.27
20867;BMP280;10593;48.398;10.698;2024-01-10T01:53:34;96873.19;;;1.27
20867;BMP280;10593;48.398;10.698;2024-01-10T01:56:06;96873.19;;;1.27
20867;BMP280;10593;48.398;10.698;2024-01-10T01:58:33;96893.44;;;1.27
20867;BMP280;10593;48.398;10.698;2024-01-10T02:00:59;96892.56;;;1.26
20867;BMP280;10593;48.398;10.698;2024-01-10T02:03:26;96899.34;;;1.27
20867;BMP280;10593;48.398;10.698;2024-01-10T02:05:53;96896.81;;;1.27
20867;BMP280;10593;48.398;10.698;2024-01-10T02:08:19;96895.09;;;1.26
20867;BMP280;10593;48.398;10.698;2024-01-10T02:10:44;96896.78;;;1.26
20867;BMP280;10593;48.398;10.698;2024-01-10T02:13:10;96895.09;;;1.26
20867;BMP280;10593;48.398;10.698;2024-01-10T02:15:38;96894.25;;;1.26
20867;BMP280;10593;48.398;10.698;2024-01-10T02:18:04;96896.78;;;1.26
20867;BMP280;10593;48.398;10.698;2024-01-10T02:20:31;96890.03;;;1.26
20867;BMP280;10593;48.398;10.698;2024-01-10T02:22:57;96888.38;;;1.27
20867;BMP280;10593;48.398;10.698;2024-01-10T02:25:23;96887.50;;;1.26
20867;BMP280;10593;48.398;10.698;2024-01-10T02:27:48;96887.56;;;1.28
20867;BMP280;10593;48.398;10.698;2024-01-10T02:30:14;96879.06;;;1.26
20867;BMP280;10593;48.398;10.698;2024-01-10T02:32:40;96891.72;;;1.26
20867;BMP280;10593;48.398;10.698;2024-01-10T02:35:07;96888.34;;;1.25
20867;BMP280;10593;48.398;10.698;2024-01-10T02:37:33;96891.72;;;1.26
20867;BMP280;10593;48.398;10.698;2024-01-10T02:39:59;96891.72;;;1.26
20867;BMP280;10593;48.398;10.698;2024-01-10T02:42:27;96893.44;;;1.27
20867;BMP280;10593;48.398;10.698;2024-01-10T02:44:54;96890.91;;;1.27
20867;BMP280;10593;48.398;10.698;2024-01-10T02:47:19;96884.97;;;1.26
20867;BMP280;10593;48.398;10.698;2024-01-10T02:49:45;96895.97;;;1.27
20867;BMP280;10593;48.398;10.698;2024-01-10T02:52:11;96893.44;;;1.27
20867;BMP280;10593;48.398;10.698;2024-01-10T02:54:36;96883.31;;;1.27
20867;BMP280;10593;48.398;10.698;2024-01-10T02:57:02;96885.91;;;1.28
20867;BMP280;10593;48.398;10.698;2024-01-10T02:59:27;96887.56;;;1.28
20867;BMP280;10593;48.398;10.698;2024-01-10T03:01:53;96881.63;;;1.27
20867;BMP280;10593;48.398;10.698;2024-01-10T03:04:19;96885.03;;;1.28
20867;BMP280;10593;48.398;10.698;2024-01-10T03:06:45;96881.63;;;1.27
20867;BMP280;10593;48.398;10.698;2024-01-10T03:09:11;96877.44;;;1.28
20867;BMP280;10593;48.398;10.698;2024-01-10T03:11:36;96874.03;;;1.27
20867;BMP280;10593;48.398;10.698;2024-01-10T03:14:11;96869.84;;;1.28
20867;BMP280;10593;48.398;10.698;2024-01-10T03:16:37;96863.91;;;1.27
20867;BMP280;10593;48.398;10.698;2024-01-10T03:19:03;96863.06;;;1.27
20867;BMP280;10593;48.398;10.698;2024-01-10T03:21:29;96866.44;;;1.27
20867;BMP280;10593;48.398;10.698;2024-01-10T03:24:00;96862.25;;;1.28
20867;BMP280;10593;48.398;10.698;2024-01-10T03:26:27;96865.59;;;1.27
20867;BMP280;10593;48.398;10.698;2024-01-10T03:28:53;96857.16;;;1.26
20867;BMP280;10593;48.398;10.698;2024-01-10T03:31:20;96855.44;;;1.25
20867;BMP280;10593;48.398;10.698;2024-01-10T03:33:46;96858.84;;;1.26
20867;BMP280;10593;48.398;10.698;2024-01-10T03:36:15;96857.97;;;1.25
20867;BMP280;10593;48.398;10.698;2024-01-10T03:38:41;96857.94;;;1.24
20867;BMP280;10593;48.398;10.698;2024-01-10T03:41:07;96855.41;;;1.24
20867;BMP280;10593;48.398;10.698;2024-01-10T03:43:32;96865.56;;;1.25
20867;BMP280;10593;48.398;10.698;2024-01-10T03:45:58;96867.25;;;1.25
20867;BMP280;10593;48.398;10.698;2024-01-10T03:48:24;96864.66;;;1.23
20867;BMP280;10593;48.398;10.698;2024-01-10T03:50:50;96865.56;;;1.25
20867;BMP280;10593;48.398;10.698;2024-01-10T03:53:16;96865.56;;;1.25
20867;BMP280;10593;48.398;10.698;2024-01-10T03:55:41;96863.03;;;1.25
20867;BMP280;10593;48.398;10.698;2024-01-10T03:58:07;96864.75;;;1.26
20867;BMP280;10593;48.398;10.698;2024-01-10T04:00:33;96857.13;;;1.25
20867;BMP280;10593;48.398;10.698;2024-01-10T04:02:59;96865.59;;;1.27
20867;BMP280;10593;48.398;10.698;2024-01-10T04:05:24;96860.56;;;1.27
20867;BMP280;10593;48.398;10.698;2024-01-10T04:07:51;96853.78;;;1.26
20867;BMP280;10593;48.398;10.698;2024-01-10T04:10:17;96857.19;;;1.28
20867;BMP280;10593;48.398;10.698;2024-01-10T04:12:44;96854.66;;;1.28
20867;BMP280;10593;48.398;10.698;2024-01-10T04:15:11;96856.38;;;1.29
20867;BMP280;10593;48.398;10.698;2024-01-10T04:17:37;96861.44;;;1.29
20867;BMP280;10593;48.398;10.698;2024-01-10T04:20:04;96862.34;;;1.31
20867;BMP280;10593;48.398;10.698;2024-01-10T04:22:30;96857.28;;;1.31
20867;BMP280;10593;48.398;10.698;2024-01-10T04:25:01;96857.28;;;1.31
20867;BMP280;10593;48.398;10.698;2024-01-10T04:27:27;96869.13;;;1.32
20867;BMP280;10593;48.398;10.698;2024-01-10T04:29:53;96868.28;;;1.33
20867;BMP280;10593;48.398;10.698;2024-01-10T04:32:19;96876.75;;;1.33
20867;BMP280;10593;48.398;10.698;2024-01-10T04:34:45;96871.69;;;1.33
20867;BMP280;10593;48.398;10.698;2024-01-10T04:37:11;96870.00;;;1.34
20867;BMP280;10593;48.398;10.698;2024-01-10T04:39:37;96870.06;;;1.35
20867;BMP280;10593;48.398;10.698;2024-01-10T04:42:06;96873.41;;;1.34
20867;BMP280;10593;48.398;10.698;2024-01-10T04:44:32;96875.88;;;1.33
20867;BMP280;10593;48.398;10.698;2024-01-10T04:46:58;96875.88;;;1.31
20867;BMP280;10593;48.398;10.698;2024-01-10T04:49:23;96869.94;;;1.31
20867;BMP280;10593;48.398;10.698;2024-01-10T04:51:50;96875.81;;;1.30
20867;BMP280;10593;48.398;10.698;2024-01-10T04:54:16;96876.63;;;1.29
20867;BMP280;10593;48.398;10.698;2024-01-10T04:56:41;96870.63;;;1.25
20867;BMP280;10593;48.398;10.698;2024-01-10T04:59:07;96869.72;;;1.23
20867;BMP280;10593;48.398;10.698;2024-01-10T05:01:33;96867.25;;;1.25
20867;BMP280;10593;48.398;10.698;2024-01-10T05:03:58;96874.84;;;1.26
20867;BMP280;10593;48.398;10.698;2024-01-10T05:06:24;96874.84;;;1.26
20867;BMP280;10593;48.398;10.698;2024-01-10T05:08:50;96869.03;;;1.29
20867;BMP280;10593;48.398;10.698;2024-01-10T05:11:16;96875.81;;;1.30
20867;BMP280;10593;48.398;10.698;2024-01-10T05:13:43;96864.88;;;1.31
20867;BMP280;10593;48.398;10.698;2024-01-10T05:16:08;96866.59;;;1.32
20867;BMP280;10593;48.398;10.698;2024-01-10T05:18:34;96865.75;;;1.33
20867;BMP280;10593;48.398;10.698;2024-01-10T05:21:01;96870.00;;;1.34
20867;BMP280;10593;48.398;10.698;2024-01-10T05:23:27;96857.34;;;1.34
20867;BMP280;10593;48.398;10.698;2024-01-10T05:25:53;96865.81;;;1.34
20867;BMP280;10593;48.398;10.698;2024-01-10T05:28:19;96868.41;;;1.36
20867;BMP280;10593;48.398;10.698;2024-01-10T05:30:45;96866.72;;;1.36
20867;BMP280;10593;48.398;10.698;2024-01-10T05:33:11;96872.66;;;1.37
20867;BMP280;10593;48.398;10.698;2024-01-10T05:35:40;96870.13;;;1.38
20867;BMP280;10593;48.398;10.698;2024-01-10T05:38:05;96867.66;;;1.40
20867;BMP280;10593;48.398;10.698;2024-01-10T05:40:31;96876.97;;;1.41
20867;BMP280;10593;48.398;10.698;2024-01-10T05:43:00;96878.69;;;1.42
20867;BMP280;10593;48.398;10.698;2024-01-10T05:45:26;96873.63;;;1.42
20867;BMP280;10593;48.398;10.698;2024-01-10T05:47:54;96882.09;;;1.42
20867;BMP280;10593;48.398;10.698;2024-01-10T05:50:20;96885.44;;;1.43
20867;BMP280;10593;48.398;10.698;2024-01-10T05:52:47;96888.84;;;1.43
20867;BMP280;10593;48.398;10.698;2024-01-10T05:55:12;96883.78;;;1.43
20867;BMP280;10593;48.398;10.698;2024-01-10T05:57:39;96893.09;;;1.44
20867;BMP280;10593;48.398;10.698;2024-01-10T06:00:06;96891.41;;;1.45
20867;BMP280;10593;48.398;10.698;2024-01-10T06:02:42;96891.41;;;1.45
20867;BMP280;10593;48.398;10.698;2024-01-10T06:05:10;96893.09;;;1.44
20867;BMP280;10593;48.398;10.698;2024-01-10T06:07:37;96898.16;;;1.44
20867;BMP280;10593;48.398;10.698;2024-01-10T06:10:04;96901.53;;;1.45
20867;BMP280;10593;48.398;10.698;2024-01-10T06:12:29;96903.25;;;1.46
20867;BMP280;10593;48.398;10.698;2024-01-10T06:14:55;96899.06;;;1.46
20867;BMP280;10593;48.398;10.698;2024-01-10T06:17:21;96901.59;;;1.48
20867;BMP280;10593;48.398;10.698;2024-01-10T06:19:47;96897.41;;;1.48
20867;BMP280;10593;48.398;10.698;2024-01-10T06:22:13;96901.59;;;1.48
20867;BMP280;10593;48.398;10.698;2024-01-10T06:24:39;96891.47;;;1.48
20867;BMP280;10593;48.398;10.698;2024-01-10T06:27:05;96899.13;;;1.49
20867;BMP280;10593;48.398;10.698;2024-01-10T06:29:31;96893.19;;;1.47
20867;BMP280;10593;48.398;10.698;2024-01-10T06:31:57;96890.66;;;1.47
20867;BMP280;10593;48.398;10.698;2024-01-10T06:34:24;96894.84;;;1.47
20867;BMP280;10593;48.398;10.698;2024-01-10T06:36:50;96884.72;;;1.47
20867;BMP280;10593;48.398;10.698;2024-01-10T06:39:15;96895.66;;;1.46
20867;BMP280;10593;48.398;10.698;2024-01-10T06:41:47;96893.13;;;1.46
20867;BMP280;10593;48.398;10.698;2024-01-10T06:44:13;96899.91;;;1.47
20867;BMP280;10593;48.398;10.698;2024-01-10T06:46:38;96902.47;;;1.48
20867;BMP280;10593;48.398;10.698;2024-01-10T06:49:04;96900.81;;;1.49
20867;BMP280;10593;48.398;10.698;2024-01-10T06:51:31;96900.84;;;1.50
20867;BMP280;10593;48.398;10.698;2024-01-10T06:53:57;96904.25;;;1.51
20867;BMP280;10593;48.398;10.698;2024-01-10T06:56:32;96910.22;;;1.53
20867;BMP280;10593;48.398;10.698;2024-01-10T06:58:59;96903.44;;;1.53
20867;BMP280;10593;48.398;10.698;2024-01-10T07:01:26;96899.25;;;1.54
20867;BMP280;10593;48.398;10.698;2024-01-10T07:03:55;96904.38;;;1.55
20867;BMP280;10593;48.398;10.698;2024-01-10T07:06:21;96897.63;;;1.56
20867;BMP280;10593;48.398;10.698;2024-01-10T07:08:49;96903.56;;;1.56
20867;BMP280;10593;48.398;10.698;2024-01-10T07:11:16;96901.88;;;1.57
20867;BMP280;10593;48.398;10.698;2024-01-10T07:13:42;96914.59;;;1.58
20867;BMP280;10593;48.398;10.698;2024-01-10T07:16:08;96911.22;;;1.59
20867;BMP280;10593;48.398;10.698;2024-01-10T07:18:34;96915.47;;;1.60
20867;BMP280;10593;48.398;10.698;2024-01-10T07:21:00;96904.47;;;1.60
20867;BMP280;10593;48.398;10.698;2024-01-10T07:23:26;96923.06;;;1.60
20867;BMP280;10593;48.398;10.698;2024-01-10T07:25:52;96923.06;;;1.60
20867;BMP280;10593;48.398;10.698;2024-01-10T07:28:19;96912.94;;;1.60
20867;BMP280;10593;48.398;10.698;2024-01-10T07:30:45;96913.78;;;1.61
20867;BMP280;10593;48.398;10.698;2024-01-10T07:33:12;96916.31;;;1.61
20867;BMP280;10593;48.398;10.698;2024-01-10T07:35:37;96903.66;;;1.61
20867;BMP280;10593;48.398;10.698;2024-01-10T07:38:05;96914.66;;;1.61
20867;BMP280;10593;48.398;10.698;2024-01-10T07:40:34;96919.66;;;1.60
20867;BMP280;10593;48.398;10.698;2024-01-10T07:43:00;96917.94;;;1.59
20867;BMP280;10593;48.398;10.698;2024-01-10T07:45:26;96924.72;;;1.58
20867;BMP280;10593;48.398;10.698;2024-01-10T07:47:52;96929.72;;;1.57
20867;BMP280;10593;48.398;10.698;2024-01-10T07:50:18;96937.31;;;1.57
20867;BMP280;10593;48.398;10.698;2024-01-10T07:52:45;96926.28;;;1.55
20867;BMP280;10593;48.398;10.698;2024-01-10T07:55:12;96930.53;;;1.56
20867;BMP280;10593;48.398;10.698;2024-01-10T07:57:38;96942.38;;;1.57
20867;BMP280;10593;48.398;10.698;2024-01-10T08:00:07;96939.03;;;1.58
20867;BMP280;10593;48.398;10.698;2024-01-10T08:02:37;96939.09;;;1.59
20867;BMP280;10593;48.398;10.698;2024-01-10T08:05:03;96938.31;;;1.62
20867;BMP280;10593;48.398;10.698;2024-01-10T08:07:31;96940.88;;;1.63
20867;BMP280;10593;48.398;10.698;2024-01-10T08:10:09;96949.41;;;1.67
20867;BMP280;10593;48.398;10.698;2024-01-10T08:12:36;96951.13;;;1.68
20867;BMP280;10593;48.398;10.698;2024-01-10T08:15:04;96946.13;;;1.71
20867;BMP280;10593;48.398;10.698;2024-01-10T08:17:29;96944.50;;;1.73
20867;BMP280;10593;48.398;10.698;2024-01-10T08:19:55;96953.91;;;1.77
20867;BMP280;10593;48.398;10.698;2024-01-10T08:22:21;96952.22;;;1.77
20867;BMP280;10593;48.398;10.698;2024-01-10T08:24:47;96960.78;;;1.81
20867;BMP280;10593;48.398;10.698;2024-01-10T08:27:13;96952.41;;;1.83
20867;BMP280;10593;48.398;10.698;2024-01-10T08:29:39;96960.03;;;1.85
20867;BMP280;10593;48.398;10.698;2024-01-10T08:32:05;96961.84;;;1.89
20867;BMP280;10593;48.398;10.698;2024-01-10T08:34:30;96966.19;;;1.93
20867;BMP280;10593;48.398;10.698;2024-01-10T08:36:56;96970.41;;;1.94
20867;BMP280;10593;48.398;10.698;2024-01-10T08:39:22;96971.31;;;1.96
20867;BMP280;10593;48.398;10.698;2024-01-10T08:41:50;96969.72;;;1.99
20867;BMP280;10593;48.398;10.698;2024-01-10T08:44:15;96968.94;;;2.01
20867;BMP280;10593;48.398;10.698;2024-01-10T08:46:41;96974.00;;;2.01
20867;BMP280;10593;48.398;10.698;2024-01-10T08:49:06;96981.69;;;2.04
20867;BMP280;10593;48.398;10.698;2024-01-10T08:51:32;96979.19;;;2.06
20867;BMP280;10593;48.398;10.698;2024-01-10T08:53:58;96975.00;;;2.08
20867;BMP280;10593;48.398;10.698;2024-01-10T08:56:23;96974.22;;;2.09
20867;BMP280;10593;48.398;10.698;2024-01-10T08:58:49;96968.34;;;2.10
20867;BMP280;10593;48.398;10.698;2024-01-10T09:01:15;96978.53;;;2.13
20867;BMP280;10593;48.398;10.698;2024-01-10T09:03:41;96977.78;;;2.15
20867;BMP280;10593;48.398;10.698;2024-01-10T09:06:07;96991.34;;;2.17
20867;BMP280;10593;48.398;10.698;2024-01-10T09:08:36;96995.63;;;2.20
20867;BMP280;10593;48.398;10.698;2024-01-10T09:11:02;96981.28;;;2.20
20867;BMP280;10593;48.398;10.698;2024-01-10T09:13:28;96989.72;;;2.21
20867;BMP280;10593;48.398;10.698;2024-01-10T09:15:54;96991.50;;;2.23
20867;BMP280;10593;48.398;10.698;2024-01-10T09:18:19;96997.44;;;2.25
20867;BMP280;10593;48.398;10.698;2024-01-10T09:20:45;96992.38;;;2.25
20867;BMP280;10593;48.398;10.698;2024-01-10T09:23:11;97000.78;;;2.23
20867;BMP280;10593;48.398;10.698;2024-01-10T09:25:36;96994.84;;;2.22
20867;BMP280;10593;48.398;10.698;2024-01-10T09:28:04;96993.13;;;2.21
20867;BMP280;10593;48.398;10.698;2024-01-10T09:30:30;96995.63;;;2.20
20867;BMP280;10593;48.398;10.698;2024-01-10T09:32:55;97005.81;;;2.21
20867;BMP280;10593;48.398;10.698;2024-01-10T09:35:22;97005.84;;;2.23
20867;BMP280;10593;48.398;10.698;2024-01-10T09:37:48;97012.72;;;2.27
20867;BMP280;10593;48.398;10.698;2024-01-10T09:40:16;97009.41;;;2.29
20867;BMP280;10593;48.398;10.698;2024-01-10T09:42:44;97004.34;;;2.31
20867;BMP280;10593;48.398;10.698;2024-01-10T09:45:10;97014.63;;;2.35
20867;BMP280;10593;48.398;10.698;2024-01-10T09:47:39;97004.47;;;2.35
20867;BMP280;10593;48.398;10.698;2024-01-10T09:50:08;97010.44;;;2.37
20867;BMP280;10593;48.398;10.698;2024-01-10T09:53:07;97015.56;;;2.39
20867;BMP280;10593;48.398;10.698;2024-01-10T09:55:36;97016.47;;;2.41
20867;BMP280;10593;48.398;10.698;2024-01-10T09:58:10;97025.84;;;2.45
20867;BMP280;10593;48.398;10.698;2024-01-10T10:00:36;97030.16;;;2.47
20867;BMP280;10593;48.398;10.698;2024-01-10T10:03:07;97026.88;;;2.51
20867;BMP280;10593;48.398;10.698;2024-01-10T10:05:33;97022.72;;;2.55
20867;BMP280;10593;48.398;10.698;2024-01-10T10:08:00;97018.56;;;2.57
20867;BMP280;10593;48.398;10.698;2024-01-10T10:10:25;97015.25;;;2.59
20867;BMP280;10593;48.398;10.698;2024-01-10T10:12:53;97020.38;;;2.62
20867;BMP280;10593;48.398;10.698;2024-01-10T10:15:24;97011.19;;;2.66
20867;BMP280;10593;48.398;10.698;2024-01-10T10:17:54;97012.91;;;2.68
20867;BMP280;10593;48.398;10.698;2024-01-10T10:20:28;97020.63;;;2.71
20867;BMP280;10593;48.398;10.698;2024-01-10T10:23:07;97014.72;;;2.72
20867;BMP280;10593;48.398;10.698;2024-01-10T10:25:46;97018.97;;;2.73
20867;BMP280;10593;48.398;10.698;2024-01-10T10:28:13;97016.50;;;2.76
20867;BMP280;10593;48.398;10.698;2024-01-10T10:30:39;97019.94;;;2.78
20867;BMP280;10593;48.398;10.698;2024-01-10T10:33:05;97014.94;;;2.81
20867;BMP280;10593;48.398;10.698;2024-01-10T10:35:34;97011.59;;;2.82
20867;BMP280;10593;48.398;10.698;2024-01-10T10:38:00;97010.78;;;2.83
20867;BMP280;10593;48.398;10.698;2024-01-10T10:40:25;97016.75;;;2.85
20867;BMP280;10593;48.398;10.698;2024-01-10T10:42:57;97012.56;;;2.87
20867;BMP280;10593;48.398;10.698;2024-01-10T10:45:23;97003.28;;;2.89
20867;BMP280;10593;48.398;10.698;2024-01-10T10:47:59;97006.72;;;2.91
20867;BMP280;10593;48.398;10.698;2024-01-10T10:50:33;97000.88;;;2.94
20867;BMP280;10593;48.398;10.698;2024-01-10T10:53:02;97006.84;;;2.96
20867;BMP280;10593;48.398;10.698;2024-01-10T10:55:29;97010.31;;;2.99
20867;BMP280;10593;48.398;10.698;2024-01-10T10:57:56;97012.88;;;3.01
20867;BMP280;10593;48.398;10.698;2024-01-10T11:00:23;97009.56;;;3.03
20867;BMP280;10593;48.398;10.698;2024-01-10T11:02:53;97008.78;;;3.07
20867;BMP280;10593;48.398;10.698;2024-01-10T11:05:22;97004.63;;;3.09
20867;BMP280;10593;48.398;10.698;2024-01-10T11:07:48;97002.97;;;3.11
20867;BMP280;10593;48.398;10.698;2024-01-10T11:10:37;97007.25;;;3.14
20867;BMP280;10593;48.398;10.698;2024-01-10T11:13:41;97007.28;;;3.15
20867;BMP280;10593;48.398;10.698;2024-01-10T11:16:54;97007.34;;;3.17
20867;BMP280;10593;48.398;10.698;2024-01-10T11:23:01;96994.66;;;3.17
20867;BMP280;10593;48.398;10.698;2024-01-10T11:25:30;97000.63;;;3.20
20867;BMP280;10593;48.398;10.698;2024-01-10T11:27:56;96994.78;;;3.23
20867;BMP280;10593;48.398;10.698;2024-01-10T11:30:35;96995.72;;;3.28
20867;BMP280;10593;48.398;10.698;2024-01-10T11:33:22;96993.22;;;3.29
20867;BMP280;10593;48.398;10.698;2024-01-10T11:36:19;96988.19;;;3.32
20867;BMP280;10593;48.398;10.698;2024-01-10T11:41:34;96986.59;;;3.36
20867;BMP280;10593;48.398;10.698;2024-01-10T11:46:51;96983.34;;;3.41
20867;BMP280;10593;48.398;10.698;2024-01-10T11:49:20;96976.59;;;3.43
20867;BMP280;10593;48.398;10.698;2024-01-10T11:51:48;96979.19;;;3.45
20867;BMP280;10593;48.398;10.698;2024-01-10T11:54:44;96975.81;;;3.47
20867;BMP280;10593;48.398;10.698;2024-01-10T11:57:26;96976.69;;;3.48
20867;BMP280;10593;48.398;10.698;2024-01-10T11:59:55;96981.00;;;3.50
20867;BMP280;10593;48.398;10.698;2024-01-10T12:02:23;96978.50;;;3.53
20867;BMP280;10593;48.398;10.698;2024-01-10T12:04:50;96974.31;;;3.55
20867;BMP280;10593;48.398;10.698;2024-01-10T12:07:18;96987.13;;;3.61
20867;BMP280;10593;48.398;10.698;2024-01-10T12:09:45;96977.88;;;3.63
20867;BMP280;10593;48.398;10.698;2024-01-10T12:12:12;96980.50;;;3.68
20867;BMP280;10593;48.398;10.698;2024-01-10T12:14:40;96980.53;;;3.69
20867;BMP280;10593;48.398;10.698;2024-01-10T12:17:06;96980.59;;;3.72
20867;BMP280;10593;48.398;10.698;2024-01-10T12:19:34;96979.75;;;3.73
20867;BMP280;10593;48.398;10.698;2024-01-10T12:22:01;96977.22;;;3.73
20867;BMP280;10593;48.398;10.698;2024-01-10T12:24:30;96977.28;;;3.76
20867;BMP280;10593;48.398;10.698;2024-01-10T12:26:56;96975.56;;;3.75
20867;BMP280;10593;48.398;10.698;2024-01-10T12:29:22;96980.66;;;3.75
20867;BMP280;10593;48.398;10.698;2024-01-10T12:31:49;96979.03;;;3.77
20867;BMP280;10593;48.398;10.698;2024-01-10T12:34:15;96975.66;;;3.78
20867;BMP280;10593;48.398;10.698;2024-01-10T12:36:42;96973.09;;;3.78
20867;BMP280;10593;48.398;10.698;2024-01-10T12:39:09;96973.94;;;3.79
20867;BMP280;10593;48.398;10.698;2024-01-10T12:41:35;96979.91;;;3.79
20867;BMP280;10593;48.398;10.698;2024-01-10T12:44:02;96978.25;;;3.81
20867;BMP280;10593;48.398;10.698;2024-01-10T12:46:30;96968.91;;;3.82
20867;BMP280;10593;48.398;10.698;2024-01-10T12:49:06;96960.47;;;3.83
20867;BMP280;10593;48.398;10.698;2024-01-10T12:51:34;96968.97;;;3.83
20867;BMP280;10593;48.398;10.698;2024-01-10T12:54:03;96968.91;;;3.82
20867;BMP280;10593;48.398;10.698;2024-01-10T12:56:32;96973.16;;;3.83
20867;BMP280;10593;48.398;10.698;2024-01-10T12:58:58;96963.84;;;3.82
20867;BMP280;10593;48.398;10.698;2024-01-10T13:01:24;96972.38;;;3.84
20867;BMP280;10593;48.398;10.698;2024-01-10T13:03:51;96977.50;;;3.87
20867;BMP280;10593;48.398;10.698;2024-01-10T13:06:18;96972.44;;;3.88
20867;BMP280;10593;48.398;10.698;2024-01-10T13:08:45;96968.25;;;3.90
20867;BMP280;10593;48.398;10.698;2024-01-10T13:11:12;96959.81;;;3.93
20867;BMP280;10593;48.398;10.698;2024-01-10T13:13:39;96965.81;;;3.96
20867;BMP280;10593;48.398;10.698;2024-01-10T13:16:06;96964.16;;;3.98
20867;BMP280;10593;48.398;10.698;2024-01-10T13:18:31;96971.00;;;4.01
20867;BMP280;10593;48.398;10.698;2024-01-10T13:20:57;96960.00;;;4.03
20867;BMP280;10593;48.398;10.698;2024-01-10T13:23:23;96955.84;;;4.05
20867;BMP280;10593;48.398;10.698;2024-01-10T13:25:52;96960.13;;;4.09
20867;BMP280;10593;48.398;10.698;2024-01-10T13:28:19;96966.97;;;4.11
20867;BMP280;10593;48.398;10.698;2024-01-10T13:30:45;96959.34;;;4.13
20867;BMP280;10593;48.398;10.698;2024-01-10T13:33:11;96963.66;;;4.15
20867;BMP280;10593;48.398;10.698;2024-01-10T13:35:37;96964.53;;;4.17
20867;BMP280;10593;48.398;10.698;2024-01-10T13:38:04;96968.00;;;4.21
20867;BMP280;10593;48.398;10.698;2024-01-10T13:40:31;96973.91;;;4.21
20867;BMP280;10593;48.398;10.698;2024-01-10T13:42:57;96972.25;;;4.22
20867;BMP280;10593;48.398;10.698;2024-01-10T13:45:23;96967.19;;;4.23
20867;BMP280;10593;48.398;10.698;2024-01-10T13:47:49;96977.38;;;4.25
20867;BMP280;10593;48.398;10.698;2024-01-10T13:50:15;96976.56;;;4.26
20867;BMP280;10593;48.398;10.698;2024-01-10T13:52:41;96975.72;;;4.27
20867;BMP280;10593;48.398;10.698;2024-01-10T13:55:08;96974.06;;;4.29
20867;BMP280;10593;48.398;10.698;2024-01-10T13:57:35;96974.13;;;4.32
20867;BMP280;10593;48.398;10.698;2024-01-10T14:00:02;96974.19;;;4.35
20867;BMP280;10593;48.398;10.698;2024-01-10T14:02:29;96974.22;;;4.38
20867;BMP280;10593;48.398;10.698;2024-01-10T14:04:54;96971.72;;;4.39
20867;BMP280;10593;48.398;10.698;2024-01-10T14:07:23;96973.44;;;4.40
20867;BMP280;10593;48.398;10.698;2024-01-10T14:09:50;96976.84;;;4.42
20867;BMP280;10593;48.398;10.698;2024-01-10T14:12:16;96979.44;;;4.45
20867;BMP280;10593;48.398;10.698;2024-01-10T14:14:41;96969.25;;;4.44
20867;BMP280;10593;48.398;10.698;2024-01-10T14:17:07;96977.81;;;4.49
20867;BMP280;10593;48.398;10.698;2024-01-10T14:19:32;96969.34;;;4.50